Time;durP1;ratioP1;P1;durP2;ratioP2;P2;SDS_P1;SDS_P2;PMS_P1;PMS_P2;Temp;Humidity;BMP_temperature;BMP_pressure;BME280_temperature;BME280_humidity;BME280_pressure;Samples;Min_cycle;Max_cycle;Signal;HPM_P1;HPM_P2
2023/08/29 00:01:54;;;;;;;2.17;1.98;;;22.70;62.80;;;;;;5067728;28;20067;-34
2023/08/29 00:04:20;;;;;;;2.13;1.88;;;22.60;63.60;;;;;;5068051;28;20032;-34
2023/08/29 00:06:46;;;;;;;1.60;1.50;;;22.60;63.20;;;;;;5081779;28;20051;-34
2023/08/29 00:09:12;;;;;;;2.13;1.40;;;22.60;63.40;;;;;;5078071;28;20035;-34
2023/08/29 00:11:39;;;;;;;2.00;1.73;;;22.60;63.00;;;;;;5068988;28;20025;-34
2023/08/29 00:14:05;;;;;;;2.25;1.70;;;22.50;62.60;;;;;;5067145;28;20035;-35
2023/08/29 00:16:31;;;;;;;1.73;1.63;;;22.50;62.40;;;;;;5081968;28;20096;-34
2023/08/29 00:18:57;;;;;;;1.65;1.55;;;22.50;62.60;;;;;;5080837;28;20063;-34
2023/08/29 00:21:24;;;;;;;1.65;1.55;;;22.50;62.40;;;;;;5072643;28;20111;-34
2023/08/29 00:23:50;;;;;;;1.52;1.30;;;22.50;61.90;;;;;;5064753;28;20033;-34
2023/08/29 00:26:16;;;;;;;1.75;1.40;;;22.40;61.80;;;;;;5064511;28;20040;-34
2023/08/29 00:28:42;;;;;;;2.45;1.20;;;22.40;62.10;;;;;;5071813;28;20546;-34
2023/08/29 00:31:08;;;;;;;1.65;1.30;;;22.40;62.60;;;;;;5067381;28;20029;-34
2023/08/29 00:33:34;;;;;;;1.77;1.23;;;22.40;62.10;;;;;;5064335;28;20699;-34
2023/08/29 00:36:00;;;;;;;1.77;1.40;;;22.40;62.40;;;;;;5077691;28;20040;-34
2023/08/29 00:38:26;;;;;;;1.52;1.42;;;22.40;62.90;;;;;;5070702;28;20028;-34
2023/08/29 00:40:53;;;;;;;1.63;1.15;;;22.30;62.80;;;;;;5078509;28;20103;-35
2023/08/29 00:43:19;;;;;;;1.55;1.15;;;22.30;61.90;;;;;;5071610;28;20032;-34
2023/08/29 00:45:45;;;;;;;1.17;0.88;;;22.30;62.70;;;;;;5068155;28;20026;-34
2023/08/29 00:48:11;;;;;;;1.42;1.10;;;22.30;61.90;;;;;;5073026;28;20055;-34
2023/08/29 00:50:37;;;;;;;1.43;1.30;;;22.20;62.40;;;;;;5054345;28;20757;-34
2023/08/29 00:53:04;;;;;;;1.52;1.05;;;22.20;61.30;;;;;;5057114;28;20021;-34
2023/08/29 00:55:31;;;;;;;1.13;1.02;;;22.20;62.30;;;;;;5071191;28;20029;-34
2023/08/29 00:57:57;;;;;;;1.10;1.00;;;22.20;61.20;;;;;;5059982;28;20060;-34
2023/08/29 01:00:24;;;;;;;1.45;1.10;;;22.20;61.80;;;;;;5078122;28;20294;-35
2023/08/29 01:02:50;;;;;;;1.23;0.98;;;22.10;61.90;;;;;;5052778;28;20040;-34
2023/08/29 01:05:16;;;;;;;1.63;1.00;;;22.10;62.30;;;;;;5081141;28;20100;-34
2023/08/29 01:07:43;;;;;;;2.10;1.07;;;22.10;61.30;;;;;;5071238;28;20052;-34
2023/08/29 01:10:09;;;;;;;1.15;0.98;;;22.10;61.80;;;;;;5066324;28;20357;-34
2023/08/29 01:12:45;;;;;;;1.10;0.97;;;22.00;62.00;;;;;;5081555;28;20023;-35
2023/08/29 01:15:17;;;;;;;1.58;1.00;;;22.00;61.70;;;;;;5055830;28;20024;-34
2023/08/29 01:17:49;;;;;;;1.20;1.10;;;22.00;62.30;;;;;;5063510;28;20467;-34
2023/08/29 01:20:15;;;;;;;0.95;0.75;;;22.00;61.80;;;;;;5067334;28;20070;-34
2023/08/29 01:23:19;;;;;;;1.00;0.80;;;21.90;62.80;;;;;;5048858;28;20033;-35
2023/08/29 01:25:51;;;;;;;1.20;1.02;;;21.90;61.80;;;;;;5066672;28;20028;-35
2023/08/29 01:28:19;;;;;;;0.85;0.75;;;21.90;62.10;;;;;;5080140;28;20024;-34
2023/08/29 01:30:45;;;;;;;1.00;0.90;;;21.90;62.40;;;;;;5067714;28;20089;-35
2023/08/29 01:33:11;;;;;;;0.90;0.80;;;21.90;61.40;;;;;;5059778;28;20119;-34
2023/08/29 01:35:47;;;;;;;0.80;0.70;;;21.80;61.90;;;;;;5061733;28;20063;-34
2023/08/29 01:38:17;;;;;;;1.00;0.90;;;21.80;61.30;;;;;;5065990;28;20082;-34
2023/08/29 01:40:43;;;;;;;1.95;0.60;;;21.80;61.30;;;;;;5070806;28;20037;-35
2023/08/29 01:43:09;;;;;;;0.82;0.70;;;21.70;61.50;;;;;;5066261;28;20103;-35
2023/08/29 01:45:36;;;;;;;0.80;0.80;;;21.70;61.80;;;;;;5074246;28;20115;-34
2023/08/29 01:48:02;;;;;;;0.80;0.80;;;21.70;61.70;;;;;;5078442;28;20035;-34
2023/08/29 01:50:29;;;;;;;1.08;0.98;;;21.70;61.40;;;;;;5073046;28;20032;-34
2023/08/29 01:52:55;;;;;;;;;;;21.70;62.10;;;;;;5051594;28;20033;-34
2023/08/29 01:55:22;;;;;;;0.88;0.60;;;21.70;62.70;;;;;;5081016;28;19919;-35
2023/08/29 01:57:48;;;;;;;1.00;0.88;;;21.60;62.80;;;;;;5073919;28;20037;-34
2023/08/29 02:00:14;;;;;;;0.95;0.70;;;21.60;63.00;;;;;;5055077;28;20045;-35
2023/08/29 02:02:41;;;;;;;1.00;0.80;;;21.60;62.90;;;;;;5051571;28;20554;-34
2023/08/29 02:05:07;;;;;;;0.70;0.70;;;21.60;62.70;;;;;;5071645;28;20096;-34
2023/08/29 02:07:33;;;;;;;0.77;0.77;;;21.60;62.60;;;;;;5069110;28;20013;-35
2023/08/29 02:09:59;;;;;;;0.95;0.80;;;21.50;62.20;;;;;;5063321;28;20040;-34
2023/08/29 02:12:26;;;;;;;0.57;0.57;;;21.50;61.30;;;;;;5070431;28;20052;-34
2023/08/29 02:14:52;;;;;;;0.70;0.70;;;21.50;61.90;;;;;;5070601;28;20034;-35
2023/08/29 02:17:18;;;;;;;0.80;0.70;;;21.50;61.80;;;;;;5070185;28;20029;-35
2023/08/29 02:19:44;;;;;;;0.77;0.77;;;21.50;61.20;;;;;;5076671;28;20096;-34
2023/08/29 02:22:11;;;;;;;0.70;0.70;;;21.40;61.60;;;;;;5070446;28;20036;-34
2023/08/29 02:24:38;;;;;;;0.77;0.70;;;21.40;61.50;;;;;;5068976;28;20096;-34
2023/08/29 02:27:04;;;;;;;0.73;0.60;;;21.40;61.50;;;;;;5054458;28;20021;-34
2023/08/29 02:29:31;;;;;;;0.50;0.50;;;21.40;61.50;;;;;;5075134;28;20524;-34
2023/08/29 02:31:58;;;;;;;0.80;0.80;;;21.30;61.70;;;;;;5075469;28;20060;-35
2023/08/29 02:34:27;;;;;;;0.77;0.63;;;21.30;62.00;;;;;;5080362;28;20056;-34
2023/08/29 02:36:53;;;;;;;1.52;0.88;;;21.30;62.20;;;;;;5073184;28;20103;-35
2023/08/29 02:39:19;;;;;;;1.58;0.70;;;21.30;62.40;;;;;;5069255;28;20037;-34
2023/08/29 02:41:46;;;;;;;0.60;0.60;;;21.20;62.70;;;;;;5063368;28;20021;-34
2023/08/29 02:44:12;;;;;;;0.90;0.90;;;21.20;62.50;;;;;;5069344;28;20052;-34
2023/08/29 02:46:38;;;;;;;0.88;0.80;;;21.20;62.90;;;;;;5070404;28;20029;-35
2023/08/29 02:49:04;;;;;;;0.65;0.65;;;21.20;62.10;;;;;;5065637;28;20447;-34
2023/08/29 02:51:30;;;;;;;1.00;0.70;;;21.10;61.90;;;;;;5068838;28;20051;-34
2023/08/29 02:53:56;;;;;;;1.00;0.90;;;21.10;61.80;;;;;;5070062;28;20035;-34
2023/08/29 02:56:22;;;;;;;1.25;0.88;;;21.10;61.30;;;;;;5070059;28;20048;-34
2023/08/29 02:58:50;;;;;;;1.13;0.82;;;21.10;64.40;;;;;;5062463;28;20387;-34
2023/08/29 03:01:16;;;;;;;1.25;0.82;;;21.10;65.80;;;;;;5068772;28;20359;-35
2023/08/29 03:03:42;;;;;;;1.73;0.80;;;21.00;66.30;;;;;;5066620;28;20029;-34
2023/08/29 03:06:08;;;;;;;1.27;0.95;;;21.00;66.60;;;;;;5067042;28;20048;-34
2023/08/29 03:08:35;;;;;;;0.93;0.80;;;21.00;66.80;;;;;;5072938;28;20025;-35
2023/08/29 03:11:04;;;;;;;0.88;0.80;;;21.00;67.10;;;;;;5064349;28;20060;-35
2023/08/29 03:13:30;;;;;;;0.73;0.73;;;21.00;67.20;;;;;;5079794;28;20025;-34
2023/08/29 03:15:59;;;;;;;0.70;0.70;;;21.00;67.30;;;;;;5080302;28;20138;-34
2023/08/29 03:18:28;;;;;;;0.68;0.68;;;21.00;67.60;;;;;;5066146;28;20108;-34
2023/08/29 03:20:55;;;;;;;1.33;0.90;;;21.00;67.80;;;;;;5073118;28;20043;-34
2023/08/29 03:23:21;;;;;;;1.90;1.20;;;21.00;68.00;;;;;;5059058;28;20055;-34
2023/08/29 03:25:48;;;;;;;0.70;0.70;;;21.00;68.10;;;;;;5080172;28;20054;-34
2023/08/29 03:28:14;;;;;;;1.13;0.90;;;21.00;68.30;;;;;;5080583;28;20032;-35
2023/08/29 03:30:40;;;;;;;0.70;0.70;;;21.10;68.40;;;;;;5068820;28;20097;-35
2023/08/29 03:33:06;;;;;;;0.88;0.80;;;21.00;69.30;;;;;;5067083;28;20025;-35
2023/08/29 03:35:32;;;;;;;1.10;1.00;;;21.10;68.80;;;;;;5078136;28;20098;-35
2023/08/29 03:37:59;;;;;;;1.17;1.07;;;21.10;68.90;;;;;;5066191;28;20037;-34
2023/08/29 03:40:25;;;;;;;1.00;0.90;;;21.10;69.00;;;;;;5066025;28;20037;-34
2023/08/29 03:42:51;;;;;;;0.65;0.65;;;21.10;69.20;;;;;;5069807;28;20033;-34
2023/08/29 03:45:18;;;;;;;0.88;0.88;;;21.10;69.20;;;;;;5078259;28;20041;-35
2023/08/29 03:47:44;;;;;;;1.20;1.10;;;21.10;69.30;;;;;;5078995;28;20032;-35
2023/08/29 03:50:10;;;;;;;1.15;0.88;;;21.20;69.40;;;;;;5075094;28;20031;-37
2023/08/29 03:52:36;;;;;;;1.17;0.77;;;21.20;69.50;;;;;;5071002;28;20037;-34
2023/08/29 03:55:04;;;;;;;0.90;0.90;;;21.20;69.70;;;;;;5080313;28;20024;-34
2023/08/29 03:57:30;;;;;;;2.15;0.82;;;21.20;69.70;;;;;;5083183;28;20025;-34
2023/08/29 03:59:56;;;;;;;1.00;0.90;;;21.20;69.80;;;;;;5070143;28;20566;-34
2023/08/29 04:02:22;;;;;;;1.27;1.00;;;21.20;69.80;;;;;;5082724;28;20748;-35
2023/08/29 04:04:51;;;;;;;0.98;0.90;;;21.20;69.90;;;;;;5082606;28;20036;-35
2023/08/29 04:07:17;;;;;;;0.90;0.90;;;21.20;69.90;;;;;;5075079;28;20036;-34
2023/08/29 04:09:43;;;;;;;1.02;0.80;;;21.20;70.00;;;;;;5082613;28;20098;-35
2023/08/29 04:12:10;;;;;;;0.93;0.82;;;21.30;70.00;;;;;;5073608;28;20035;-34
2023/08/29 04:14:36;;;;;;;0.90;0.90;;;21.30;69.90;;;;;;5076646;28;20033;-35
2023/08/29 04:17:03;;;;;;;0.90;0.90;;;21.30;69.90;;;;;;5065836;28;20033;-34
2023/08/29 04:19:30;;;;;;;1.10;1.00;;;21.30;70.00;;;;;;5071229;28;20169;-34
2023/08/29 04:21:56;;;;;;;0.98;0.90;;;21.30;70.00;;;;;;5072558;28;20701;-34
2023/08/29 04:24:23;;;;;;;0.93;0.90;;;21.40;70.10;;;;;;5074820;28;20060;-34
2023/08/29 04:26:49;;;;;;;0.80;0.80;;;21.30;70.10;;;;;;5065058;28;20062;-34
2023/08/29 04:29:15;;;;;;;1.48;1.08;;;21.30;70.20;;;;;;5073742;28;20081;-34
2023/08/29 04:31:43;;;;;;;1.00;0.93;;;21.40;70.20;;;;;;5067751;28;20049;-34
2023/08/29 04:34:09;;;;;;;1.48;1.00;;;21.40;70.30;;;;;;5073202;28;20060;-35
2023/08/29 04:36:35;;;;;;;1.00;0.90;;;21.40;70.30;;;;;;5075199;28;20049;-34
2023/08/29 04:39:02;;;;;;;1.20;1.10;;;21.40;70.30;;;;;;5074594;28;20144;-34
2023/08/29 04:41:28;;;;;;;1.00;0.90;;;21.40;70.40;;;;;;5075397;28;20518;-34
2023/08/29 04:43:54;;;;;;;1.13;1.02;;;21.40;70.40;;;;;;5074275;28;20036;-34
2023/08/29 04:46:20;;;;;;;0.93;0.90;;;21.40;70.40;;;;;;5057312;28;20029;-34
2023/08/29 04:48:47;;;;;;;1.10;1.00;;;21.50;70.40;;;;;;5071076;28;20119;-34
2023/08/29 04:51:13;;;;;;;1.05;0.90;;;21.50;70.40;;;;;;5080993;28;20089;-35
2023/08/29 04:53:39;;;;;;;0.82;0.82;;;21.50;70.40;;;;;;5054941;28;20482;-34
2023/08/29 04:56:05;;;;;;;1.00;0.90;;;21.50;70.30;;;;;;5071360;28;20025;-34
2023/08/29 04:58:31;;;;;;;0.85;0.80;;;21.50;70.40;;;;;;5064711;28;20028;-34
2023/08/29 05:00:58;;;;;;;2.05;1.00;;;21.50;70.40;;;;;;5067196;28;20033;-34
2023/08/29 05:03:24;;;;;;;0.90;0.90;;;21.50;70.50;;;;;;5071175;28;20024;-35
2023/08/29 05:05:53;;;;;;;1.48;1.23;;;21.50;70.60;;;;;;5070990;28;20550;-34
2023/08/29 05:08:19;;;;;;;1.38;1.00;;;21.50;70.60;;;;;;5073004;28;20024;-35
2023/08/29 05:10:46;;;;;;;1.15;0.90;;;21.50;70.70;;;;;;5077682;28;20642;-34
2023/08/29 05:13:12;;;;;;;1.50;1.00;;;21.60;70.80;;;;;;5080513;28;20401;-35
2023/08/29 05:15:38;;;;;;;1.20;1.10;;;21.50;70.80;;;;;;5068249;28;20047;-35
2023/08/29 05:18:04;;;;;;;1.38;1.27;;;21.60;70.90;;;;;;5071351;28;20095;-34
2023/08/29 05:20:30;;;;;;;0.80;0.80;;;21.60;70.90;;;;;;5064140;28;20053;-34
2023/08/29 05:22:57;;;;;;;0.98;0.88;;;21.60;70.80;;;;;;5067007;28;20029;-35
2023/08/29 05:25:23;;;;;;;1.13;1.02;;;21.60;70.90;;;;;;5070107;28;20054;-34
2023/08/29 05:27:49;;;;;;;0.77;0.68;;;21.60;70.90;;;;;;5077823;28;20024;-35
2023/08/29 05:30:15;;;;;;;1.08;0.90;;;21.60;70.80;;;;;;5064329;28;20033;-34
2023/08/29 05:32:42;;;;;;;1.15;0.98;;;21.60;70.70;;;;;;5065516;28;20082;-35
2023/08/29 05:35:08;;;;;;;1.10;0.93;;;21.60;70.90;;;;;;5065641;28;20045;-34
2023/08/29 05:37:34;;;;;;;0.80;0.80;;;21.60;70.80;;;;;;5075849;28;20293;-34
2023/08/29 05:40:00;;;;;;;1.10;1.00;;;21.60;71.00;;;;;;5078379;28;20033;-34
2023/08/29 05:42:27;;;;;;;1.05;0.85;;;21.60;71.00;;;;;;5062799;28;20027;-35
2023/08/29 05:44:53;;;;;;;1.70;1.17;;;21.60;71.10;;;;;;5070971;28;20032;-34
2023/08/29 05:47:19;;;;;;;1.25;0.90;;;21.60;71.20;;;;;;5073740;28;20046;-34
2023/08/29 05:49:45;;;;;;;1.60;0.90;;;21.70;71.40;;;;;;5063580;28;20490;-34
2023/08/29 05:52:11;;;;;;;1.15;1.00;;;21.70;71.40;;;;;;5072506;28;20036;-34
2023/08/29 05:54:37;;;;;;;1.02;0.93;;;21.70;71.40;;;;;;5064800;28;20025;-35
2023/08/29 05:57:05;;;;;;;2.20;1.20;;;21.70;71.50;;;;;;5071719;28;20041;-34
2023/08/29 05:59:31;;;;;;;;;;;21.70;71.40;;;;;;5076766;28;20041;-34
2023/08/29 06:01:57;;;;;;;1.15;0.80;;;21.70;71.30;;;;;;5064181;28;20003;-34
2023/08/29 06:04:23;;;;;;;1.67;0.90;;;21.70;71.30;;;;;;5078913;28;20031;-34
2023/08/29 06:06:49;;;;;;;1.30;0.93;;;21.70;71.20;;;;;;5054779;28;20033;-35
2023/08/29 06:09:16;;;;;;;1.90;1.10;;;21.70;71.30;;;;;;5073617;28;20087;-34
2023/08/29 06:11:42;;;;;;;1.98;0.98;;;21.70;71.40;;;;;;5074045;28;20036;-35
2023/08/29 06:14:08;;;;;;;1.20;1.10;;;21.70;71.40;;;;;;5058503;28;21739;-34
2023/08/29 06:16:34;;;;;;;1.13;1.02;;;21.70;71.50;;;;;;5075159;28;20028;-34
2023/08/29 06:19:00;;;;;;;1.15;1.05;;;21.70;71.50;;;;;;5071727;28;20546;-35
2023/08/29 06:21:26;;;;;;;1.20;0.93;;;21.70;71.50;;;;;;5070365;28;20025;-34
2023/08/29 06:23:53;;;;;;;0.90;0.73;;;21.70;71.50;;;;;;5076295;28;20156;-34
2023/08/29 06:26:19;;;;;;;0.82;0.80;;;21.80;71.60;;;;;;5069593;28;20088;-34
2023/08/29 06:28:45;;;;;;;1.00;0.90;;;21.80;71.60;;;;;;5069934;28;20029;-34
2023/08/29 06:31:11;;;;;;;1.90;0.80;;;21.80;71.60;;;;;;5062019;28;20032;-35
2023/08/29 06:33:37;;;;;;;1.42;1.20;;;21.80;71.70;;;;;;5069081;28;20025;-34
2023/08/29 06:36:04;;;;;;;1.02;0.93;;;21.80;71.70;;;;;;5072249;28;20105;-34
2023/08/29 06:38:34;;;;;;;1.27;1.13;;;21.80;71.70;;;;;;5079707;28;20076;-34
2023/08/29 06:41:00;;;;;;;2.03;1.00;;;21.80;71.80;;;;;;5067783;28;20037;-35
2023/08/29 06:43:26;;;;;;;1.40;1.20;;;21.80;71.80;;;;;;5065745;28;20021;-35
2023/08/29 06:45:53;;;;;;;0.95;0.90;;;21.80;71.80;;;;;;5073012;28;20039;-34
2023/08/29 06:48:19;;;;;;;1.45;1.10;;;21.80;71.90;;;;;;5076411;28;20035;-34
2023/08/29 06:50:46;;;;;;;1.27;1.10;;;21.80;71.90;;;;;;5077237;28;20096;-35
2023/08/29 06:53:12;;;;;;;1.02;0.90;;;21.80;72.10;;;;;;5068898;28;20028;-35
2023/08/29 06:55:38;;;;;;;1.27;0.90;;;21.80;72.00;;;;;;5052830;28;20060;-34
2023/08/29 06:58:05;;;;;;;1.30;1.20;;;21.90;72.00;;;;;;5065816;28;20025;-34
2023/08/29 07:00:32;;;;;;;1.20;1.10;;;21.90;72.30;;;;;;5061348;28;20071;-34
2023/08/29 07:02:58;;;;;;;2.05;1.20;;;21.90;72.20;;;;;;5071979;28;20024;-34
2023/08/29 07:05:26;;;;;;;0.90;0.90;;;21.90;72.20;;;;;;5065279;28;20029;-34
2023/08/29 07:07:52;;;;;;;1.20;1.05;;;21.90;72.20;;;;;;5072448;28;20043;-34
2023/08/29 07:10:19;;;;;;;2.33;1.35;;;21.90;72.20;;;;;;5054929;28;20057;-34
2023/08/29 07:12:46;;;;;;;1.35;0.90;;;21.90;72.20;;;;;;5072500;28;20072;-34
2023/08/29 07:15:12;;;;;;;1.27;1.17;;;21.90;72.20;;;;;;5072761;28;20096;-34
2023/08/29 07:17:38;;;;;;;0.95;0.85;;;21.90;72.20;;;;;;5073438;28;20048;-35
2023/08/29 07:20:08;;;;;;;1.40;1.13;;;21.90;72.20;;;;;;5073704;28;20045;-34
2023/08/29 07:22:36;;;;;;;1.23;1.13;;;21.90;72.20;;;;;;5076950;28;20032;-35
2023/08/29 07:25:03;;;;;;;2.45;1.08;;;21.90;72.20;;;;;;5082225;28;20043;-34
2023/08/29 07:27:32;;;;;;;1.27;1.02;;;21.90;72.20;;;;;;5075981;28;20025;-34
2023/08/29 07:29:58;;;;;;;1.30;1.05;;;21.90;72.90;;;;;;5075467;28;20037;-35
2023/08/29 07:32:24;;;;;;;1.20;1.10;;;21.90;72.20;;;;;;5072755;28;20047;-35
2023/08/29 07:34:51;;;;;;;2.28;1.05;;;21.90;72.30;;;;;;5065787;28;20542;-35
2023/08/29 07:37:17;;;;;;;2.42;1.20;;;22.00;72.30;;;;;;5057689;28;20033;-35
2023/08/29 07:39:44;;;;;;;1.15;1.05;;;22.00;72.40;;;;;;5065537;28;20156;-35
2023/08/29 07:42:10;;;;;;;1.07;1.00;;;22.00;72.30;;;;;;5071072;28;20029;-34
2023/08/29 07:44:36;;;;;;;1.02;0.98;;;22.00;72.30;;;;;;5084322;28;20030;-34
2023/08/29 07:47:02;;;;;;;2.75;1.50;;;22.00;72.40;;;;;;5066400;28;20036;-35
2023/08/29 07:49:28;;;;;;;1.15;1.05;;;22.00;72.40;;;;;;5070207;28;20100;-34
2023/08/29 07:51:55;;;;;;;1.27;1.10;;;22.00;72.40;;;;;;5067473;28;20466;-35
2023/08/29 07:54:21;;;;;;;1.48;1.20;;;22.00;72.40;;;;;;5072559;28;20033;-34
2023/08/29 07:56:47;;;;;;;2.10;1.10;;;22.00;72.50;;;;;;5072694;28;20021;-35
2023/08/29 07:59:14;;;;;;;1.23;0.98;;;22.00;72.50;;;;;;5073167;28;20043;-35
2023/08/29 08:01:41;;;;;;;1.48;1.20;;;22.00;72.50;;;;;;5060845;28;20032;-34
2023/08/29 08:04:07;;;;;;;1.42;1.20;;;22.00;72.50;;;;;;5048840;28;20088;-35
2023/08/29 08:06:34;;;;;;;1.77;1.42;;;22.00;72.50;;;;;;5072359;28;20078;-34
2023/08/29 08:09:02;;;;;;;1.30;0.90;;;22.00;72.50;;;;;;5071089;28;20036;-35
2023/08/29 08:11:28;;;;;;;2.83;1.30;;;22.00;72.60;;;;;;5078789;28;20040;-35
2023/08/29 08:13:55;;;;;;;1.38;1.10;;;22.00;72.70;;;;;;5073234;28;20040;-34
2023/08/29 08:16:21;;;;;;;1.98;1.27;;;22.00;72.70;;;;;;5072273;28;20089;-34
2023/08/29 08:18:47;;;;;;;1.20;1.10;;;22.00;72.70;;;;;;5064717;28;20033;-34
2023/08/29 08:21:13;;;;;;;3.38;1.30;;;22.00;72.80;;;;;;5071081;28;20035;-35
2023/08/29 08:23:39;;;;;;;1.77;1.30;;;22.00;72.70;;;;;;5070055;28;20025;-34
2023/08/29 08:26:06;;;;;;;1.90;1.20;;;22.10;73.00;;;;;;5066202;28;20029;-35
2023/08/29 08:28:32;;;;;;;1.17;1.00;;;22.10;73.00;;;;;;5053496;28;20151;-35
2023/08/29 08:30:58;;;;;;;1.27;1.17;;;22.10;73.20;;;;;;5064675;28;20059;-35
2023/08/29 08:33:25;;;;;;;2.03;1.15;;;22.10;73.10;;;;;;5071704;28;20043;-34
2023/08/29 08:35:51;;;;;;;;;;;22.10;73.00;;;;;;5070465;28;20063;-34
2023/08/29 08:38:17;;;;;;;1.88;1.27;;;22.10;72.90;;;;;;5071189;28;19912;-34
2023/08/29 08:40:43;;;;;;;1.63;1.20;;;22.10;72.80;;;;;;5070910;28;20055;-34
2023/08/29 08:43:10;;;;;;;1.55;1.30;;;22.10;72.80;;;;;;5061802;28;20032;-34
2023/08/29 08:45:39;;;;;;;1.05;0.95;;;22.10;72.90;;;;;;5076291;28;20025;-34
2023/08/29 08:48:06;;;;;;;2.13;1.38;;;22.10;72.90;;;;;;5061756;28;20024;-34
2023/08/29 08:50:32;;;;;;;2.53;1.30;;;22.10;73.00;;;;;;5058300;28;20035;-35
2023/08/29 08:52:59;;;;;;;1.58;1.10;;;22.10;73.00;;;;;;5074308;28;20032;-35
2023/08/29 08:55:26;;;;;;;1.48;1.17;;;22.10;73.00;;;;;;5068332;28;20063;-34
2023/08/29 08:57:52;;;;;;;2.78;1.40;;;22.10;73.10;;;;;;5072465;28;20029;-35
2023/08/29 09:00:20;;;;;;;2.15;1.30;;;22.10;73.10;;;;;;5056778;28;20047;-35
2023/08/29 09:02:46;;;;;;;1.45;1.23;;;22.10;73.20;;;;;;5077596;28;20509;-34
2023/08/29 09:05:12;;;;;;;1.17;1.07;;;22.10;73.30;;;;;;5073589;28;20040;-35
2023/08/29 09:07:39;;;;;;;1.48;1.20;;;22.10;73.40;;;;;;5077823;28;20043;-34
2023/08/29 09:10:32;;;;;;;2.17;1.20;;;22.10;73.30;;;;;;5072379;28;20036;-35
2023/08/29 09:12:58;;;;;;;3.05;1.30;;;22.10;73.40;;;;;;4991297;28;20117;-34
2023/08/29 09:15:26;;;;;;;1.88;1.20;;;22.10;73.40;;;;;;4989715;28;20038;-34
2023/08/29 09:17:53;;;;;;;1.85;1.38;;;22.10;73.40;;;;;;4988858;28;20766;-35
2023/08/29 09:20:20;;;;;;;2.78;1.20;;;22.10;73.30;;;;;;4991566;28;20082;-34
2023/08/29 09:22:46;;;;;;;1.30;1.20;;;22.10;73.20;;;;;;4988926;28;20138;-35
2023/08/29 09:25:12;;;;;;;2.08;1.35;;;22.10;73.30;;;;;;4997624;28;20111;-34
2023/08/29 09:27:40;;;;;;;1.30;1.20;;;22.10;73.30;;;;;;4993787;28;20034;-35
2023/08/29 09:30:16;;;;;;;2.30;1.20;;;22.10;73.30;;;;;;4979182;28;20049;-34
2023/08/29 09:32:47;;;;;;;1.90;1.33;;;22.20;73.40;;;;;;4981516;28;20838;-34
2023/08/29 09:35:14;;;;;;;2.30;1.30;;;22.20;73.30;;;;;;4982598;28;20057;-34
2023/08/29 09:37:50;;;;;;;1.65;1.40;;;22.20;73.40;;;;;;4981382;28;20057;-34
2023/08/29 09:40:20;;;;;;;1.50;1.35;;;22.20;73.40;;;;;;4981921;28;20042;-35
2023/08/29 09:42:56;;;;;;;2.22;1.30;;;22.20;73.60;;;;;;4981537;28;20125;-35
2023/08/29 09:45:22;;;;;;;1.75;1.20;;;22.20;73.70;;;;;;4965622;28;20034;-35
2023/08/29 09:47:52;;;;;;;1.38;1.27;;;22.20;73.70;;;;;;4981797;28;20622;-34
2023/08/29 09:50:19;;;;;;;1.50;1.10;;;22.20;73.80;;;;;;5053315;28;20537;-35
2023/08/29 09:52:46;;;;;;;1.55;1.40;;;22.20;73.80;;;;;;5062440;28;20512;-35
2023/08/29 09:55:12;;;;;;;1.60;1.30;;;22.20;73.80;;;;;;5062938;28;20025;-35
2023/08/29 09:57:38;;;;;;;1.55;1.45;;;22.20;73.70;;;;;;5067738;28;20047;-34
2023/08/29 10:00:05;;;;;;;1.60;1.30;;;22.20;73.70;;;;;;5070267;28;20054;-35
2023/08/29 10:02:31;;;;;;;1.38;1.27;;;22.20;73.60;;;;;;5066094;28;20036;-35
2023/08/29 10:05:08;;;;;;;2.75;1.30;;;22.20;73.50;;;;;;5052025;28;20039;-34
2023/08/29 10:07:51;;;;;;;1.70;1.30;;;22.20;73.50;;;;;;5050966;28;20017;-35
2023/08/29 10:10:17;;;;;;;1.33;1.20;;;22.20;73.50;;;;;;5054241;28;20040;-34
2023/08/29 10:12:43;;;;;;;1.42;1.30;;;22.20;73.50;;;;;;5072408;28;20485;-35
2023/08/29 10:15:10;;;;;;;1.55;1.13;;;22.20;73.70;;;;;;5064679;28;20033;-35
2023/08/29 10:17:36;;;;;;;2.42;1.40;;;22.20;73.60;;;;;;5056271;28;20021;-34
2023/08/29 10:20:10;;;;;;;1.50;1.40;;;22.20;73.60;;;;;;5076213;28;20040;-34
2023/08/29 10:22:37;;;;;;;3.03;1.35;;;22.20;73.70;;;;;;5060286;28;20018;-35
2023/08/29 10:25:04;;;;;;;1.65;1.25;;;22.20;73.80;;;;;;5070098;28;20092;-34
2023/08/29 10:27:33;;;;;;;1.50;1.40;;;22.30;73.90;;;;;;5068532;28;20021;-35
2023/08/29 10:30:02;;;;;;;1.42;1.10;;;22.20;73.90;;;;;;5044959;28;20393;-34
2023/08/29 10:32:29;;;;;;;1.45;1.30;;;22.30;74.10;;;;;;5061476;28;20868;-34
2023/08/29 10:34:56;;;;;;;1.30;1.20;;;22.30;74.10;;;;;;5013113;28;1686797;-34
2023/08/29 10:37:22;;;;;;;1.50;1.30;;;22.30;74.00;;;;;;5070587;28;20349;-35
2023/08/29 10:39:51;;;;;;;1.50;1.40;;;22.30;74.10;;;;;;5058913;28;20045;-34
2023/08/29 10:42:17;;;;;;;1.23;1.13;;;22.30;73.90;;;;;;5076950;28;20281;-35
2023/08/29 10:44:44;;;;;;;1.00;1.00;;;22.30;73.90;;;;;;5070146;28;20049;-34
2023/08/29 10:47:26;;;;;;;2.40;1.20;;;22.30;73.80;;;;;;5071428;28;20028;-34
2023/08/29 10:50:00;;;;;;;1.30;1.20;;;22.30;73.90;;;;;;5079470;28;20118;-34
2023/08/29 10:52:40;;;;;;;1.45;1.35;;;22.30;73.90;;;;;;5041992;28;20036;-34
2023/08/29 10:55:18;;;;;;;1.63;1.10;;;22.30;73.90;;;;;;5061734;28;20071;-35
2023/08/29 10:57:44;;;;;;;1.58;1.00;;;22.30;74.00;;;;;;5045428;28;20029;-35
2023/08/29 11:00:17;;;;;;;1.20;1.10;;;22.30;74.10;;;;;;5062672;28;20624;-34
2023/08/29 11:02:44;;;;;;;1.38;1.27;;;22.30;73.90;;;;;;5062331;28;20470;-34
2023/08/29 11:05:11;;;;;;;3.28;1.30;;;22.30;73.90;;;;;;5071750;28;20037;-34
2023/08/29 11:07:38;;;;;;;1.60;1.10;;;22.30;74.10;;;;;;5049730;28;20021;-35
2023/08/29 11:10:21;;;;;;;1.25;1.10;;;22.30;74.20;;;;;;5077084;28;20031;-35
2023/08/29 11:13:09;;;;;;;1.33;1.20;;;22.30;74.10;;;;;;5069250;28;20034;-34
2023/08/29 11:16:05;;;;;;;1.17;1.07;;;22.30;74.20;;;;;;5062014;28;20057;-35
2023/08/29 11:18:34;;;;;;;1.88;1.40;;;22.30;74.20;;;;;;5056225;28;20036;-35
2023/08/29 11:21:09;;;;;;;1.70;1.23;;;22.30;74.20;;;;;;5078469;28;20055;-34
2023/08/29 11:23:40;;;;;;;1.80;1.30;;;22.30;74.10;;;;;;5072887;28;20025;-34
2023/08/29 11:26:08;;;;;;;1.30;1.20;;;22.30;74.10;;;;;;5081123;28;20078;-34
2023/08/29 11:28:38;;;;;;;1.30;0.95;;;22.30;74.00;;;;;;5072985;28;20053;-35
2023/08/29 11:31:05;;;;;;;2.35;1.17;;;22.30;74.10;;;;;;5073286;28;20017;-35
2023/08/29 11:33:34;;;;;;;;;;;22.30;74.00;;;;;;5077602;28;20036;-34
2023/08/29 11:36:04;;;;;;;1.45;1.13;;;22.30;74.20;;;;;;5068580;28;19927;-35
2023/08/29 11:38:31;;;;;;;1.60;1.45;;;22.30;74.20;;;;;;5072947;28;20024;-34
2023/08/29 11:40:59;;;;;;;1.42;1.27;;;22.30;74.20;;;;;;5072313;28;20056;-35
2023/08/29 11:43:25;;;;;;;2.05;1.20;;;22.30;74.10;;;;;;5072781;28;20032;-35
2023/08/29 11:45:53;;;;;;;1.70;1.40;;;22.40;74.20;;;;;;5079750;28;20044;-34
2023/08/29 11:48:32;;;;;;;1.25;1.15;;;22.40;74.50;;;;;;5072793;28;20806;-34
2023/08/29 11:51:03;;;;;;;1.50;1.40;;;22.40;74.70;;;;;;5072099;28;20033;-34
2023/08/29 11:53:36;;;;;;;2.05;1.20;;;22.40;74.60;;;;;;5068875;28;20044;-34
2023/08/29 11:56:04;;;;;;;1.85;1.40;;;22.40;74.60;;;;;;5066305;28;20082;-34
2023/08/29 11:58:31;;;;;;;1.88;1.40;;;22.40;74.70;;;;;;5074646;28;20020;-34
2023/08/29 12:01:01;;;;;;;1.38;1.13;;;22.40;74.70;;;;;;5072054;28;20066;-34
2023/08/29 12:03:27;;;;;;;1.20;1.10;;;22.40;74.60;;;;;;5064685;28;20107;-35
2023/08/29 12:06:04;;;;;;;1.42;1.33;;;22.40;74.40;;;;;;5082325;28;20028;-35
2023/08/29 12:08:34;;;;;;;1.63;1.30;;;22.40;74.30;;;;;;5070490;28;20083;-35
2023/08/29 12:11:00;;;;;;;1.20;1.10;;;22.40;74.30;;;;;;5081244;28;20066;-35
2023/08/29 12:13:26;;;;;;;2.60;1.30;;;22.40;74.40;;;;;;5069356;28;20045;-34
2023/08/29 12:15:52;;;;;;;1.30;1.10;;;22.40;74.30;;;;;;5064179;28;20044;-34
2023/08/29 12:18:23;;;;;;;1.10;1.00;;;22.40;74.40;;;;;;5075345;28;20021;-34
2023/08/29 12:20:49;;;;;;;1.50;1.23;;;22.40;74.20;;;;;;5067063;28;20049;-34
2023/08/29 12:23:28;;;;;;;1.50;1.17;;;22.40;74.30;;;;;;5075614;28;20027;-35
2023/08/29 12:25:56;;;;;;;1.50;1.30;;;22.40;74.40;;;;;;5072533;28;20036;-35
2023/08/29 12:28:24;;;;;;;1.33;1.23;;;22.40;74.60;;;;;;5061097;28;20025;-34
2023/08/29 12:30:50;;;;;;;1.42;1.33;;;22.40;74.60;;;;;;5073668;28;20044;-35
2023/08/29 12:33:16;;;;;;;1.30;1.20;;;22.40;74.70;;;;;;5073886;28;20036;-34
2023/08/29 12:35:43;;;;;;;1.85;1.50;;;22.40;74.80;;;;;;5064869;28;20055;-35
2023/08/29 12:38:09;;;;;;;1.27;1.10;;;22.40;74.80;;;;;;5072114;28;20029;-34
2023/08/29 12:40:37;;;;;;;1.20;1.10;;;22.40;74.90;;;;;;5059254;28;20050;-35
2023/08/29 12:43:06;;;;;;;1.83;1.30;;;22.40;74.70;;;;;;5065577;28;20044;-34
2023/08/29 12:45:32;;;;;;;1.40;1.30;;;22.40;74.70;;;;;;5075213;28;20036;-35
2023/08/29 12:47:58;;;;;;;1.42;1.13;;;22.50;74.60;;;;;;5065877;28;20029;-35
2023/08/29 12:50:24;;;;;;;1.95;1.27;;;22.50;74.80;;;;;;5071511;28;20103;-35